sensor_id;sensor_type;location;lat;lon;timestamp;P1;durP1;ratioP1;P2;durP2;ratioP2
68250;SDS011;55066;51.560;4.642;2024-01-07T00:01:17;9.67;;;3.93;;
68250;SDS011;55066;51.560;4.642;2024-01-07T00:03:43;7.72;;;3.85;;
68250;SDS011;55066;51.560;4.642;2024-01-07T00:06:09;4.83;;;1.87;;
68250;SDS011;55066;51.560;4.642;2024-01-07T00:08:35;10.25;;;4.75;;
68250;SDS011;55066;51.560;4.642;2024-01-07T00:11:01;6.07;;;2.67;;
68250;SDS011;55066;51.560;4.642;2024-01-07T00:13:26;7.90;;;3.67;;
68250;SDS011;55066;51.560;4.642;2024-01-07T00:15:51;12.10;;;4.17;;
68250;SDS011;55066;51.560;4.642;2024-01-07T00:18:19;11.00;;;5.00;;
68250;SDS011;55066;51.560;4.642;2024-01-07T00:20:44;16.13;;;4.32;;
68250;SDS011;55066;51.560;4.642;2024-01-07T00:23:10;13.73;;;5.10;;
68250;SDS011;55066;51.560;4.642;2024-01-07T00:25:35;11.43;;;4.43;;
68250;SDS011;55066;51.560;4.642;2024-01-07T00:28:01;9.30;;;3.37;;
68250;SDS011;55066;51.560;4.642;2024-01-07T00:30:26;8.43;;;3.13;;
68250;SDS011;55066;51.560;4.642;2024-01-07T00:32:52;12.00;;;4.43;;
68250;SDS011;55066;51.560;4.642;2024-01-07T00:35:18;10.82;;;3.90;;
68250;SDS011;55066;51.560;4.642;2024-01-07T00:37:44;11.83;;;4.77;;
68250;SDS011;55066;51.560;4.642;2024-01-07T00:40:10;13.68;;;5.25;;
68250;SDS011;55066;51.560;4.642;2024-01-07T00:42:36;10.97;;;3.77;;
68250;SDS011;55066;51.560;4.642;2024-01-07T00:45:03;14.68;;;5.65;;
68250;SDS011;55066;51.560;4.642;2024-01-07T00:47:28;11.70;;;4.80;;
68250;SDS011;55066;51.560;4.642;2024-01-07T00:49:54;13.82;;;5.10;;
68250;SDS011;55066;51.560;4.642;2024-01-07T00:52:19;15.33;;;5.30;;
68250;SDS011;55066;51.560;4.642;2024-01-07T00:54:46;14.55;;;5.45;;
68250;SDS011;55066;51.560;4.642;2024-01-07T00:57:11;10.50;;;4.60;;
68250;SDS011;55066;51.560;4.642;2024-01-07T00:59:40;9.50;;;4.25;;
68250;SDS011;55066;51.560;4.642;2024-01-07T01:02:05;15.10;;;5.70;;
68250;SDS011;55066;51.560;4.642;2024-01-07T01:04:31;9.73;;;3.87;;
68250;SDS011;55066;51.560;4.642;2024-01-07T01:06:56;16.42;;;5.55;;
68250;SDS011;55066;51.560;4.642;2024-01-07T01:09:22;9.95;;;3.97;;
68250;SDS011;55066;51.560;4.642;2024-01-07T01:11:47;14.13;;;5.13;;
68250;SDS011;55066;51.560;4.642;2024-01-07T01:14:15;14.38;;;5.38;;
68250;SDS011;55066;51.560;4.642;2024-01-07T01:16:41;15.57;;;5.17;;
68250;SDS011;55066;51.560;4.642;2024-01-07T01:19:06;6.40;;;3.20;;
68250;SDS011;55066;51.560;4.642;2024-01-07T01:21:32;13.60;;;5.27;;
68250;SDS011;55066;51.560;4.642;2024-01-07T01:23:57;9.80;;;4.30;;
68250;SDS011;55066;51.560;4.642;2024-01-07T01:26:23;13.05;;;5.15;;
68250;SDS011;55066;51.560;4.642;2024-01-07T01:28:48;9.50;;;3.85;;
68250;SDS011;55066;51.560;4.642;2024-01-07T01:31:14;13.13;;;4.53;;
68250;SDS011;55066;51.560;4.642;2024-01-07T01:33:40;11.10;;;4.53;;
68250;SDS011;55066;51.560;4.642;2024-01-07T01:36:06;14.47;;;5.70;;
68250;SDS011;55066;51.560;4.642;2024-01-07T01:38:32;13.40;;;4.95;;
68250;SDS011;55066;51.560;4.642;2024-01-07T01:40:57;11.90;;;4.30;;
68250;SDS011;55066;51.560;4.642;2024-01-07T01:43:23;14.05;;;5.22;;
68250;SDS011;55066;51.560;4.642;2024-01-07T01:45:53;12.55;;;4.72;;
68250;SDS011;55066;51.560;4.642;2024-01-07T01:48:20;12.60;;;4.50;;
68250;SDS011;55066;51.560;4.642;2024-01-07T01:50:46;9.60;;;3.60;;
68250;SDS011;55066;51.560;4.642;2024-01-07T01:53:13;14.45;;;5.82;;
68250;SDS011;55066;51.560;4.642;2024-01-07T01:55:39;13.20;;;5.23;;
68250;SDS011;55066;51.560;4.642;2024-01-07T01:58:05;12.13;;;4.55;;
68250;SDS011;55066;51.560;4.642;2024-01-07T02:00:34;15.30;;;5.97;;
68250;SDS011;55066;51.560;4.642;2024-01-07T02:03:01;10.13;;;3.75;;
68250;SDS011;55066;51.560;4.642;2024-01-07T02:05:26;19.67;;;6.80;;
68250;SDS011;55066;51.560;4.642;2024-01-07T02:07:54;10.13;;;3.40;;
68250;SDS011;55066;51.560;4.642;2024-01-07T02:10:21;8.85;;;4.10;;
68250;SDS011;55066;51.560;4.642;2024-01-07T02:12:47;12.10;;;4.33;;
68250;SDS011;55066;51.560;4.642;2024-01-07T02:15:13;12.80;;;4.40;;
68250;SDS011;55066;51.560;4.642;2024-01-07T02:17:39;11.77;;;4.55;;
68250;SDS011;55066;51.560;4.642;2024-01-07T02:20:05;10.32;;;4.38;;
68250;SDS011;55066;51.560;4.642;2024-01-07T02:22:31;6.47;;;3.37;;
68250;SDS011;55066;51.560;4.642;2024-01-07T02:24:57;15.27;;;5.43;;
68250;SDS011;55066;51.560;4.642;2024-01-07T02:27:23;10.90;;;4.67;;
68250;SDS011;55066;51.560;4.642;2024-01-07T02:29:48;11.70;;;4.20;;
68250;SDS011;55066;51.560;4.642;2024-01-07T02:32:14;12.13;;;4.70;;
68250;SDS011;55066;51.560;4.642;2024-01-07T02:34:39;9.87;;;4.43;;
68250;SDS011;55066;51.560;4.642;2024-01-07T02:37:05;12.33;;;4.43;;
68250;SDS011;55066;51.560;4.642;2024-01-07T02:39:30;14.25;;;5.22;;
68250;SDS011;55066;51.560;4.642;2024-01-07T02:41:56;10.10;;;4.13;;
68250;SDS011;55066;51.560;4.642;2024-01-07T02:44:21;11.70;;;4.30;;
68250;SDS011;55066;51.560;4.642;2024-01-07T02:46:46;9.40;;;4.17;;
68250;SDS011;55066;51.560;4.642;2024-01-07T02:49:12;12.23;;;4.65;;
68250;SDS011;55066;51.560;4.642;2024-01-07T02:51:38;8.13;;;3.28;;
68250;SDS011;55066;51.560;4.642;2024-01-07T02:54:04;11.15;;;4.60;;
68250;SDS011;55066;51.560;4.642;2024-01-07T02:56:29;9.80;;;4.57;;
68250;SDS011;55066;51.560;4.642;2024-01-07T02:58:55;7.27;;;3.37;;
68250;SDS011;55066;51.560;4.642;2024-01-07T03:01:24;14.00;;;5.78;;
68250;SDS011;55066;51.560;4.642;2024-01-07T03:03:49;13.40;;;4.25;;
68250;SDS011;55066;51.560;4.642;2024-01-07T03:06:15;16.30;;;6.03;;
68250;SDS011;55066;51.560;4.642;2024-01-07T03:08:41;14.37;;;5.70;;
68250;SDS011;55066;51.560;4.642;2024-01-07T03:11:07;14.68;;;4.95;;
68250;SDS011;55066;51.560;4.642;2024-01-07T03:13:33;13.33;;;4.20;;
68250;SDS011;55066;51.560;4.642;2024-01-07T03:15:58;14.60;;;5.57;;
68250;SDS011;55066;51.560;4.642;2024-01-07T03:18:24;15.30;;;5.50;;
68250;SDS011;55066;51.560;4.642;2024-01-07T03:20:49;16.05;;;5.53;;
68250;SDS011;55066;51.560;4.642;2024-01-07T03:23:15;11.40;;;4.83;;
68250;SDS011;55066;51.560;4.642;2024-01-07T03:25:41;11.10;;;4.43;;
68250;SDS011;55066;51.560;4.642;2024-01-07T03:28:06;14.02;;;5.20;;
68250;SDS011;55066;51.560;4.642;2024-01-07T03:30:31;16.00;;;5.85;;
68250;SDS011;55066;51.560;4.642;2024-01-07T03:32:57;12.97;;;4.60;;
68250;SDS011;55066;51.560;4.642;2024-01-07T03:35:22;11.20;;;4.60;;
68250;SDS011;55066;51.560;4.642;2024-01-07T03:37:49;17.38;;;6.47;;
68250;SDS011;55066;51.560;4.642;2024-01-07T03:40:15;12.13;;;5.30;;
68250;SDS011;55066;51.560;4.642;2024-01-07T03:42:40;11.68;;;4.60;;
68250;SDS011;55066;51.560;4.642;2024-01-07T03:45:06;15.13;;;6.45;;
68250;SDS011;55066;51.560;4.642;2024-01-07T03:47:32;16.20;;;5.97;;
68250;SDS011;55066;51.560;4.642;2024-01-07T03:49:57;14.57;;;5.70;;
68250;SDS011;55066;51.560;4.642;2024-01-07T03:52:23;12.10;;;5.03;;
68250;SDS011;55066;51.560;4.642;2024-01-07T03:54:48;12.50;;;5.20;;
68250;SDS011;55066;51.560;4.642;2024-01-07T03:57:13;17.50;;;6.40;;
68250;SDS011;55066;51.560;4.642;2024-01-07T03:59:39;15.40;;;5.93;;
68250;SDS011;55066;51.560;4.642;2024-01-07T04:02:04;15.80;;;6.53;;
68250;SDS011;55066;51.560;4.642;2024-01-07T04:04:30;13.32;;;4.97;;
68250;SDS011;55066;51.560;4.642;2024-01-07T04:06:56;16.27;;;5.90;;
68250;SDS011;55066;51.560;4.642;2024-01-07T04:09:22;14.00;;;5.25;;
68250;SDS011;55066;51.560;4.642;2024-01-07T04:11:48;18.93;;;6.93;;
68250;SDS011;55066;51.560;4.642;2024-01-07T04:14:14;13.68;;;5.35;;
68250;SDS011;55066;51.560;4.642;2024-01-07T04:16:40;16.27;;;5.90;;
68250;SDS011;55066;51.560;4.642;2024-01-07T04:19:07;13.90;;;5.13;;
68250;SDS011;55066;51.560;4.642;2024-01-07T04:21:32;15.23;;;5.33;;
68250;SDS011;55066;51.560;4.642;2024-01-07T04:23:58;15.85;;;6.00;;
68250;SDS011;55066;51.560;4.642;2024-01-07T04:26:23;16.90;;;5.97;;
68250;SDS011;55066;51.560;4.642;2024-01-07T04:28:49;15.07;;;5.13;;
68250;SDS011;55066;51.560;4.642;2024-01-07T04:31:14;16.27;;;5.22;;
68250;SDS011;55066;51.560;4.642;2024-01-07T04:33:40;15.47;;;5.53;;
68250;SDS011;55066;51.560;4.642;2024-01-07T04:36:06;13.97;;;4.93;;
68250;SDS011;55066;51.560;4.642;2024-01-07T04:38:31;13.20;;;5.13;;
68250;SDS011;55066;51.560;4.642;2024-01-07T04:40:57;14.87;;;5.40;;
68250;SDS011;55066;51.560;4.642;2024-01-07T04:43:22;18.95;;;6.82;;
68250;SDS011;55066;51.560;4.642;2024-01-07T04:45:48;13.70;;;5.40;;
68250;SDS011;55066;51.560;4.642;2024-01-07T04:48:13;18.27;;;4.87;;
68250;SDS011;55066;51.560;4.642;2024-01-07T04:50:39;17.93;;;6.97;;
68250;SDS011;55066;51.560;4.642;2024-01-07T04:53:07;18.63;;;7.15;;
68250;SDS011;55066;51.560;4.642;2024-01-07T04:55:33;15.23;;;6.57;;
68250;SDS011;55066;51.560;4.642;2024-01-07T04:57:58;15.23;;;5.50;;
68250;SDS011;55066;51.560;4.642;2024-01-07T05:00:24;10.93;;;4.53;;
68250;SDS011;55066;51.560;4.642;2024-01-07T05:02:49;19.33;;;6.85;;
68250;SDS011;55066;51.560;4.642;2024-01-07T05:05:15;15.13;;;6.10;;
68250;SDS011;55066;51.560;4.642;2024-01-07T05:07:40;20.33;;;6.73;;
68250;SDS011;55066;51.560;4.642;2024-01-07T05:10:06;27.47;;;8.67;;
68250;SDS011;55066;51.560;4.642;2024-01-07T05:12:31;20.02;;;6.13;;
68250;SDS011;55066;51.560;4.642;2024-01-07T05:14:57;23.90;;;7.90;;
68250;SDS011;55066;51.560;4.642;2024-01-07T05:17:22;17.38;;;5.72;;
68250;SDS011;55066;51.560;4.642;2024-01-07T05:19:48;18.93;;;5.93;;
68250;SDS011;55066;51.560;4.642;2024-01-07T05:22:13;16.70;;;6.67;;
68250;SDS011;55066;51.560;4.642;2024-01-07T05:24:39;19.73;;;6.67;;
68250;SDS011;55066;51.560;4.642;2024-01-07T05:27:04;14.50;;;4.90;;
68250;SDS011;55066;51.560;4.642;2024-01-07T05:29:30;12.45;;;4.40;;
68250;SDS011;55066;51.560;4.642;2024-01-07T05:31:56;20.08;;;6.57;;
68250;SDS011;55066;51.560;4.642;2024-01-07T05:34:23;13.83;;;4.70;;
68250;SDS011;55066;51.560;4.642;2024-01-07T05:36:49;18.83;;;6.10;;
68250;SDS011;55066;51.560;4.642;2024-01-07T05:39:14;15.37;;;5.07;;
68250;SDS011;55066;51.560;4.642;2024-01-07T05:41:40;19.65;;;6.80;;
68250;SDS011;55066;51.560;4.642;2024-01-07T05:44:08;23.47;;;8.53;;
68250;SDS011;55066;51.560;4.642;2024-01-07T05:46:34;14.77;;;4.38;;
68250;SDS011;55066;51.560;4.642;2024-01-07T05:49:03;16.50;;;6.40;;
68250;SDS011;55066;51.560;4.642;2024-01-07T05:51:30;17.13;;;5.35;;
68250;SDS011;55066;51.560;4.642;2024-01-07T05:53:56;26.95;;;8.05;;
68250;SDS011;55066;51.560;4.642;2024-01-07T05:56:23;21.70;;;7.25;;
68250;SDS011;55066;51.560;4.642;2024-01-07T05:58:48;17.33;;;6.63;;
68250;SDS011;55066;51.560;4.642;2024-01-07T06:01:18;18.90;;;7.23;;
68250;SDS011;55066;51.560;4.642;2024-01-07T06:03:47;21.45;;;7.78;;
68250;SDS011;55066;51.560;4.642;2024-01-07T06:06:13;22.43;;;6.37;;
68250;SDS011;55066;51.560;4.642;2024-01-07T06:08:41;22.13;;;8.02;;
68250;SDS011;55066;51.560;4.642;2024-01-07T06:11:06;32.10;;;10.10;;
68250;SDS011;55066;51.560;4.642;2024-01-07T06:13:32;23.37;;;8.73;;
68250;SDS011;55066;51.560;4.642;2024-01-07T06:15:57;18.47;;;7.37;;
68250;SDS011;55066;51.560;4.642;2024-01-07T06:18:23;23.25;;;8.43;;
68250;SDS011;55066;51.560;4.642;2024-01-07T06:20:48;26.60;;;8.13;;
68250;SDS011;55066;51.560;4.642;2024-01-07T06:23:14;18.93;;;7.43;;
68250;SDS011;55066;51.560;4.642;2024-01-07T06:25:39;16.57;;;6.40;;
68250;SDS011;55066;51.560;4.642;2024-01-07T06:28:05;15.57;;;6.15;;
68250;SDS011;55066;51.560;4.642;2024-01-07T06:30:30;21.70;;;7.03;;
68250;SDS011;55066;51.560;4.642;2024-01-07T06:32:56;16.67;;;6.03;;
68250;SDS011;55066;51.560;4.642;2024-01-07T06:35:21;19.48;;;7.00;;
68250;SDS011;55066;51.560;4.642;2024-01-07T06:37:47;21.88;;;6.65;;
68250;SDS011;55066;51.560;4.642;2024-01-07T06:40:13;21.60;;;7.73;;
68250;SDS011;55066;51.560;4.642;2024-01-07T06:42:38;18.45;;;6.65;;
68250;SDS011;55066;51.560;4.642;2024-01-07T06:45:04;17.60;;;5.63;;
68250;SDS011;55066;51.560;4.642;2024-01-07T06:47:30;24.98;;;8.13;;
68250;SDS011;55066;51.560;4.642;2024-01-07T06:49:55;15.17;;;5.43;;
68250;SDS011;55066;51.560;4.642;2024-01-07T06:52:21;20.93;;;7.23;;
68250;SDS011;55066;51.560;4.642;2024-01-07T06:54:46;21.98;;;6.88;;
68250;SDS011;55066;51.560;4.642;2024-01-07T06:57:12;29.57;;;7.40;;
68250;SDS011;55066;51.560;4.642;2024-01-07T06:59:37;15.57;;;5.97;;
68250;SDS011;55066;51.560;4.642;2024-01-07T07:02:03;13.55;;;5.40;;
68250;SDS011;55066;51.560;4.642;2024-01-07T07:04:29;17.70;;;6.93;;
68250;SDS011;55066;51.560;4.642;2024-01-07T07:06:55;28.23;;;8.15;;
68250;SDS011;55066;51.560;4.642;2024-01-07T07:09:22;22.90;;;7.90;;
68250;SDS011;55066;51.560;4.642;2024-01-07T07:11:48;18.63;;;6.75;;
68250;SDS011;55066;51.560;4.642;2024-01-07T07:14:13;12.30;;;5.10;;
68250;SDS011;55066;51.560;4.642;2024-01-07T07:16:40;23.05;;;7.70;;
68250;SDS011;55066;51.560;4.642;2024-01-07T07:19:05;21.53;;;7.40;;
68250;SDS011;55066;51.560;4.642;2024-01-07T07:21:31;23.40;;;7.60;;
68250;SDS011;55066;51.560;4.642;2024-01-07T07:23:56;15.93;;;5.87;;
68250;SDS011;55066;51.560;4.642;2024-01-07T07:26:22;24.50;;;7.90;;
68250;SDS011;55066;51.560;4.642;2024-01-07T07:28:48;19.87;;;6.40;;
68250;SDS011;55066;51.560;4.642;2024-01-07T07:31:13;18.77;;;6.40;;
68250;SDS011;55066;51.560;4.642;2024-01-07T07:33:39;20.43;;;6.97;;
68250;SDS011;55066;51.560;4.642;2024-01-07T07:36:05;24.50;;;8.68;;
68250;SDS011;55066;51.560;4.642;2024-01-07T07:38:31;24.17;;;7.03;;
68250;SDS011;55066;51.560;4.642;2024-01-07T07:40:56;15.43;;;5.68;;
68250;SDS011;55066;51.560;4.642;2024-01-07T07:43:22;25.23;;;8.50;;
68250;SDS011;55066;51.560;4.642;2024-01-07T07:45:47;25.70;;;7.33;;
68250;SDS011;55066;51.560;4.642;2024-01-07T07:48:13;17.53;;;6.00;;
68250;SDS011;55066;51.560;4.642;2024-01-07T07:50:38;21.00;;;7.00;;
68250;SDS011;55066;51.560;4.642;2024-01-07T07:53:05;18.75;;;8.55;;
68250;SDS011;55066;51.560;4.642;2024-01-07T07:55:31;21.60;;;8.50;;
68250;SDS011;55066;51.560;4.642;2024-01-07T07:57:56;11.47;;;4.47;;
68250;SDS011;55066;51.560;4.642;2024-01-07T08:00:23;18.35;;;6.03;;
68250;SDS011;55066;51.560;4.642;2024-01-07T08:02:49;18.58;;;7.07;;
68250;SDS011;55066;51.560;4.642;2024-01-07T08:05:16;12.10;;;5.15;;
68250;SDS011;55066;51.560;4.642;2024-01-07T08:07:41;15.73;;;6.97;;
68250;SDS011;55066;51.560;4.642;2024-01-07T08:10:07;18.20;;;6.50;;
68250;SDS011;55066;51.560;4.642;2024-01-07T08:12:34;19.17;;;7.90;;
68250;SDS011;55066;51.560;4.642;2024-01-07T08:15:01;18.40;;;6.68;;
68250;SDS011;55066;51.560;4.642;2024-01-07T08:17:27;14.00;;;6.22;;
68250;SDS011;55066;51.560;4.642;2024-01-07T08:19:54;20.23;;;7.38;;
68250;SDS011;55066;51.560;4.642;2024-01-07T08:22:19;20.07;;;7.23;;
68250;SDS011;55066;51.560;4.642;2024-01-07T08:24:45;15.60;;;6.43;;
68250;SDS011;55066;51.560;4.642;2024-01-07T08:27:10;14.40;;;5.80;;
68250;SDS011;55066;51.560;4.642;2024-01-07T08:29:36;21.03;;;7.63;;
68250;SDS011;55066;51.560;4.642;2024-01-07T08:32:02;14.40;;;5.55;;
68250;SDS011;55066;51.560;4.642;2024-01-07T08:34:27;13.23;;;5.27;;
68250;SDS011;55066;51.560;4.642;2024-01-07T08:36:52;14.67;;;5.33;;
68250;SDS011;55066;51.560;4.642;2024-01-07T08:39:21;18.88;;;6.88;;
68250;SDS011;55066;51.560;4.642;2024-01-07T08:41:46;20.77;;;7.60;;
68250;SDS011;55066;51.560;4.642;2024-01-07T08:44:12;18.63;;;7.75;;
68250;SDS011;55066;51.560;4.642;2024-01-07T08:46:38;11.40;;;5.33;;
68250;SDS011;55066;51.560;4.642;2024-01-07T08:49:03;16.97;;;5.73;;
68250;SDS011;55066;51.560;4.642;2024-01-07T08:51:28;16.45;;;6.10;;
68250;SDS011;55066;51.560;4.642;2024-01-07T08:53:54;15.47;;;5.67;;
68250;SDS011;55066;51.560;4.642;2024-01-07T08:56:20;13.05;;;4.82;;
68250;SDS011;55066;51.560;4.642;2024-01-07T08:58:46;18.47;;;6.80;;
68250;SDS011;55066;51.560;4.642;2024-01-07T09:01:11;18.93;;;7.07;;
68250;SDS011;55066;51.560;4.642;2024-01-07T09:03:39;10.75;;;4.50;;
68250;SDS011;55066;51.560;4.642;2024-01-07T09:06:05;13.88;;;4.65;;
68250;SDS011;55066;51.560;4.642;2024-01-07T09:08:30;11.37;;;4.87;;
68250;SDS011;55066;51.560;4.642;2024-01-07T09:10:56;18.67;;;7.37;;
68250;SDS011;55066;51.560;4.642;2024-01-07T09:13:21;12.73;;;5.50;;
68250;SDS011;55066;51.560;4.642;2024-01-07T09:15:46;17.40;;;6.78;;
68250;SDS011;55066;51.560;4.642;2024-01-07T09:18:12;17.33;;;5.27;;
68250;SDS011;55066;51.560;4.642;2024-01-07T09:20:37;13.63;;;5.67;;
68250;SDS011;55066;51.560;4.642;2024-01-07T09:23:03;16.23;;;6.73;;
68250;SDS011;55066;51.560;4.642;2024-01-07T09:25:29;16.40;;;6.20;;
68250;SDS011;55066;51.560;4.642;2024-01-07T09:27:54;17.20;;;6.43;;
68250;SDS011;55066;51.560;4.642;2024-01-07T09:30:20;15.20;;;5.93;;
68250;SDS011;55066;51.560;4.642;2024-01-07T09:32:45;18.85;;;6.35;;
68250;SDS011;55066;51.560;4.642;2024-01-07T09:35:10;17.97;;;7.20;;
68250;SDS011;55066;51.560;4.642;2024-01-07T09:37:36;15.63;;;6.10;;
68250;SDS011;55066;51.560;4.642;2024-01-07T09:40:02;16.53;;;6.47;;
68250;SDS011;55066;51.560;4.642;2024-01-07T09:42:31;19.02;;;6.72;;
68250;SDS011;55066;51.560;4.642;2024-01-07T09:44:57;10.77;;;4.13;;
68250;SDS011;55066;51.560;4.642;2024-01-07T09:47:27;17.85;;;6.97;;
68250;SDS011;55066;51.560;4.642;2024-01-07T09:49:53;10.07;;;4.37;;
68250;SDS011;55066;51.560;4.642;2024-01-07T09:52:18;12.90;;;5.30;;
68250;SDS011;55066;51.560;4.642;2024-01-07T09:54:45;16.73;;;6.97;;
68250;SDS011;55066;51.560;4.642;2024-01-07T09:57:16;12.77;;;5.55;;
68250;SDS011;55066;51.560;4.642;2024-01-07T09:59:42;11.20;;;5.17;;
68250;SDS011;55066;51.560;4.642;2024-01-07T10:02:08;18.67;;;5.60;;
68250;SDS011;55066;51.560;4.642;2024-01-07T10:04:34;14.07;;;5.40;;
68250;SDS011;55066;51.560;4.642;2024-01-07T10:07:01;16.50;;;6.05;;
68250;SDS011;55066;51.560;4.642;2024-01-07T10:09:29;18.57;;;7.13;;
68250;SDS011;55066;51.560;4.642;2024-01-07T10:11:58;9.82;;;3.78;;
68250;SDS011;55066;51.560;4.642;2024-01-07T10:14:24;19.73;;;7.15;;
68250;SDS011;55066;51.560;4.642;2024-01-07T10:16:53;14.97;;;5.23;;
68250;SDS011;55066;51.560;4.642;2024-01-07T10:19:20;14.27;;;5.80;;
68250;SDS011;55066;51.560;4.642;2024-01-07T10:22:04;14.20;;;5.65;;
68250;SDS011;55066;51.560;4.642;2024-01-07T10:24:36;16.65;;;6.78;;
68250;SDS011;55066;51.560;4.642;2024-01-07T10:27:03;12.77;;;5.65;;
68250;SDS011;55066;51.560;4.642;2024-01-07T10:29:30;13.17;;;4.73;;
68250;SDS011;55066;51.560;4.642;2024-01-07T10:31:57;16.10;;;6.22;;
68250;SDS011;55066;51.560;4.642;2024-01-07T10:34:23;17.02;;;6.10;;
68250;SDS011;55066;51.560;4.642;2024-01-07T10:36:50;19.58;;;6.88;;
68250;SDS011;55066;51.560;4.642;2024-01-07T10:39:18;11.77;;;5.35;;
68250;SDS011;55066;51.560;4.642;2024-01-07T10:41:44;13.23;;;2.63;;
68250;SDS011;55066;51.560;4.642;2024-01-07T10:44:11;16.13;;;5.97;;
68250;SDS011;55066;51.560;4.642;2024-01-07T10:46:37;13.75;;;5.30;;
68250;SDS011;55066;51.560;4.642;2024-01-07T10:49:07;11.90;;;5.30;;
68250;SDS011;55066;51.560;4.642;2024-01-07T10:52:09;10.52;;;4.18;;
68250;SDS011;55066;51.560;4.642;2024-01-07T10:54:36;12.77;;;5.23;;
68250;SDS011;55066;51.560;4.642;2024-01-07T10:57:19;11.07;;;4.78;;
68250;SDS011;55066;51.560;4.642;2024-01-07T10:59:57;17.98;;;5.90;;
68250;SDS011;55066;51.560;4.642;2024-01-07T11:02:25;9.15;;;3.40;;
68250;SDS011;55066;51.560;4.642;2024-01-07T11:04:54;12.55;;;5.57;;
68250;SDS011;55066;51.560;4.642;2024-01-07T11:07:35;16.30;;;6.20;;
68250;SDS011;55066;51.560;4.642;2024-01-07T11:10:08;12.65;;;4.78;;
68250;SDS011;55066;51.560;4.642;2024-01-07T11:12:37;10.13;;;4.65;;
68250;SDS011;55066;51.560;4.642;2024-01-07T11:15:03;11.10;;;4.50;;
68250;SDS011;55066;51.560;4.642;2024-01-07T11:19:59;10.02;;;4.20;;
68250;SDS011;55066;51.560;4.642;2024-01-07T11:22:25;13.52;;;4.97;;
68250;SDS011;55066;51.560;4.642;2024-01-07T11:24:55;8.07;;;3.75;;
68250;SDS011;55066;51.560;4.642;2024-01-07T11:27:21;13.83;;;5.50;;
68250;SDS011;55066;51.560;4.642;2024-01-07T11:29:54;13.68;;;5.88;;
68250;SDS011;55066;51.560;4.642;2024-01-07T11:32:31;11.30;;;3.95;;
68250;SDS011;55066;51.560;4.642;2024-01-07T11:34:58;13.57;;;5.50;;
68250;SDS011;55066;51.560;4.642;2024-01-07T11:37:24;14.85;;;4.93;;
68250;SDS011;55066;51.560;4.642;2024-01-07T11:39:51;19.33;;;5.70;;
68250;SDS011;55066;51.560;4.642;2024-01-07T11:42:20;12.95;;;4.47;;
68250;SDS011;55066;51.560;4.642;2024-01-07T11:44:46;15.38;;;6.10;;
68250;SDS011;55066;51.560;4.642;2024-01-07T11:47:14;12.93;;;4.82;;
68250;SDS011;55066;51.560;4.642;2024-01-07T11:49:43;14.93;;;5.05;;
68250;SDS011;55066;51.560;4.642;2024-01-07T11:52:09;15.23;;;5.67;;
68250;SDS011;55066;51.560;4.642;2024-01-07T11:54:36;13.25;;;4.70;;
68250;SDS011;55066;51.560;4.642;2024-01-07T11:57:05;9.48;;;3.75;;
68250;SDS011;55066;51.560;4.642;2024-01-07T11:59:32;11.85;;;4.45;;
68250;SDS011;55066;51.560;4.642;2024-01-07T12:02:00;13.45;;;5.03;;
68250;SDS011;55066;51.560;4.642;2024-01-07T12:04:27;12.93;;;5.00;;
68250;SDS011;55066;51.560;4.642;2024-01-07T12:06:53;8.27;;;3.33;;
68250;SDS011;55066;51.560;4.642;2024-01-07T12:09:18;7.03;;;3.75;;
68250;SDS011;55066;51.560;4.642;2024-01-07T12:11:44;12.43;;;4.47;;
68250;SDS011;55066;51.560;4.642;2024-01-07T12:14:11;9.30;;;4.07;;
68250;SDS011;55066;51.560;4.642;2024-01-07T12:16:37;8.02;;;3.30;;
68250;SDS011;55066;51.560;4.642;2024-01-07T12:19:03;12.98;;;4.40;;
68250;SDS011;55066;51.560;4.642;2024-01-07T12:21:29;12.30;;;4.53;;
68250;SDS011;55066;51.560;4.642;2024-01-07T12:23:55;10.43;;;4.65;;
68250;SDS011;55066;51.560;4.642;2024-01-07T12:26:25;16.10;;;5.47;;
68250;SDS011;55066;51.560;4.642;2024-01-07T12:28:52;10.77;;;4.03;;
68250;SDS011;55066;51.560;4.642;2024-01-07T12:31:23;9.73;;;3.95;;
68250;SDS011;55066;51.560;4.642;2024-01-07T12:33:48;11.65;;;4.35;;
68250;SDS011;55066;51.560;4.642;2024-01-07T12:36:14;14.00;;;5.03;;
68250;SDS011;55066;51.560;4.642;2024-01-07T12:38:40;10.55;;;4.72;;
68250;SDS011;55066;51.560;4.642;2024-01-07T12:41:06;11.13;;;4.60;;
68250;SDS011;55066;51.560;4.642;2024-01-07T12:43:32;13.70;;;5.30;;
68250;SDS011;55066;51.560;4.642;2024-01-07T12:45:59;7.10;;;2.95;;
68250;SDS011;55066;51.560;4.642;2024-01-07T12:48:29;13.88;;;4.80;;
68250;SDS011;55066;51.560;4.642;2024-01-07T12:50:55;11.57;;;5.15;;
68250;SDS011;55066;51.560;4.642;2024-01-07T12:53:21;10.10;;;4.03;;
68250;SDS011;55066;51.560;4.642;2024-01-07T12:55:47;12.07;;;5.00;;
68250;SDS011;55066;51.560;4.642;2024-01-07T12:58:13;10.95;;;3.83;;
68250;SDS011;55066;51.560;4.642;2024-01-07T13:00:38;12.38;;;4.35;;
68250;SDS011;55066;51.560;4.642;2024-01-07T13:03:06;10.60;;;4.07;;
68250;SDS011;55066;51.560;4.642;2024-01-07T13:05:33;8.55;;;3.53;;
68250;SDS011;55066;51.560;4.642;2024-01-07T13:07:59;6.68;;;2.88;;
68250;SDS011;55066;51.560;4.642;2024-01-07T13:10:25;9.63;;;3.07;;
68250;SDS011;55066;51.560;4.642;2024-01-07T13:12:50;12.20;;;4.00;;
68250;SDS011;55066;51.560;4.642;2024-01-07T13:15:16;9.07;;;3.55;;
68250;SDS011;55066;51.560;4.642;2024-01-07T13:17:42;10.83;;;4.03;;
68250;SDS011;55066;51.560;4.642;2024-01-07T13:20:08;11.93;;;4.32;;
68250;SDS011;55066;51.560;4.642;2024-01-07T13:22:37;12.25;;;4.68;;
68250;SDS011;55066;51.560;4.642;2024-01-07T13:25:04;8.63;;;3.83;;
68250;SDS011;55066;51.560;4.642;2024-01-07T13:27:31;8.85;;;3.67;;
68250;SDS011;55066;51.560;4.642;2024-01-07T13:29:56;8.95;;;3.58;;
68250;SDS011;55066;51.560;4.642;2024-01-07T13:32:24;8.05;;;3.40;;
68250;SDS011;55066;51.560;4.642;2024-01-07T13:34:49;9.67;;;3.53;;
68250;SDS011;55066;51.560;4.642;2024-01-07T13:37:15;12.00;;;4.45;;
68250;SDS011;55066;51.560;4.642;2024-01-07T13:39:40;12.87;;;3.73;;
68250;SDS011;55066;51.560;4.642;2024-01-07T13:42:07;12.18;;;4.10;;
68250;SDS011;55066;51.560;4.642;2024-01-07T13:44:33;10.80;;;3.80;;
68250;SDS011;55066;51.560;4.642;2024-01-07T13:46:59;10.32;;;3.25;;
68250;SDS011;55066;51.560;4.642;2024-01-07T13:49:26;5.77;;;2.63;;
68250;SDS011;55066;51.560;4.642;2024-01-07T13:51:54;5.65;;;2.97;;
68250;SDS011;55066;51.560;4.642;2024-01-07T13:54:20;7.80;;;3.30;;
68250;SDS011;55066;51.560;4.642;2024-01-07T13:56:46;5.47;;;2.53;;
68250;SDS011;55066;51.560;4.642;2024-01-07T13:59:11;8.00;;;3.03;;
68250;SDS011;55066;51.560;4.642;2024-01-07T14:01:37;6.65;;;3.08;;
68250;SDS011;55066;51.560;4.642;2024-01-07T14:04:03;8.37;;;2.80;;
68250;SDS011;55066;51.560;4.642;2024-01-07T14:06:29;7.55;;;2.97;;
68250;SDS011;55066;51.560;4.642;2024-01-07T14:08:55;7.72;;;2.42;;
68250;SDS011;55066;51.560;4.642;2024-01-07T14:11:20;7.87;;;3.20;;
68250;SDS011;55066;51.560;4.642;2024-01-07T14:13:46;6.60;;;2.50;;
68250;SDS011;55066;51.560;4.642;2024-01-07T14:16:12;4.50;;;2.20;;
68250;SDS011;55066;51.560;4.642;2024-01-07T14:18:39;6.15;;;2.25;;
68250;SDS011;55066;51.560;4.642;2024-01-07T14:21:04;13.70;;;2.58;;
68250;SDS011;55066;51.560;4.642;2024-01-07T14:23:30;4.47;;;1.77;;
68250;SDS011;55066;51.560;4.642;2024-01-07T14:25:56;5.45;;;1.95;;
68250;SDS011;55066;51.560;4.642;2024-01-07T14:28:22;6.15;;;2.13;;
68250;SDS011;55066;51.560;4.642;2024-01-07T14:30:48;5.80;;;2.30;;
68250;SDS011;55066;51.560;4.642;2024-01-07T14:33:14;3.92;;;1.77;;